createdAt,value
2019-03-22T00:38:29.768Z,1026.83
2019-03-22T01:00:26.251Z,1026.72
2019-03-22T01:19:27.387Z,1026.53
2019-03-22T02:27:28.393Z,1026.37
2019-03-22T02:43:28.281Z,1026.24
2019-03-22T03:01:27.823Z,1026.20
2019-03-22T03:04:29.264Z,1026.19
2019-03-22T03:05:29.494Z,1026.19
2019-03-22T03:07:28.405Z,1026.24
2019-03-22T03:08:27.960Z,1026.20
2019-03-22T03:10:27.954Z,1026.20
2019-03-22T03:11:27.953Z,1026.20
2019-03-22T03:13:28.245Z,1026.16
2019-03-22T03:14:28.690Z,1026.13
2019-03-22T03:15:28.058Z,1026.12
2019-03-22T03:16:28.220Z,1026.12
2019-03-22T03:20:28.254Z,1026.11
2019-03-22T03:21:28.372Z,1026.06
2019-03-22T03:22:28.079Z,1026.06
2019-03-22T03:23:28.114Z,1026.06
2019-03-22T03:24:28.101Z,1026.04
2019-03-22T03:25:28.419Z,1026.07
2019-03-22T03:26:29.169Z,1026.03
2019-03-22T03:27:28.603Z,1026.04
2019-03-22T03:28:36.477Z,1026.04
2019-03-22T03:29:28.194Z,1026.06
2019-03-22T03:30:28.228Z,1026.07
2019-03-22T03:31:28.217Z,1026.08
2019-03-22T03:33:28.287Z,1026.05
2019-03-22T03:38:28.712Z,1025.90
2019-03-22T03:39:28.371Z,1025.87
2019-03-22T03:40:28.389Z,1025.84
2019-03-22T03:42:28.774Z,1025.79
2019-03-22T03:43:28.364Z,1025.83
2019-03-22T03:44:28.372Z,1025.82
2019-03-22T03:45:28.377Z,1025.82
2019-03-22T03:46:28.385Z,1025.87
2019-03-22T03:47:28.414Z,1025.85
2019-03-22T03:48:28.421Z,1025.83
2019-03-22T03:49:29.870Z,1025.83
2019-03-22T03:50:28.833Z,1025.88
2019-03-22T03:53:29.308Z,1025.91
2019-03-22T03:54:28.499Z,1025.90
2019-03-22T03:55:28.507Z,1025.89
2019-03-22T03:56:28.516Z,1025.90
2019-03-22T03:57:28.551Z,1025.87
2019-03-22T03:58:28.546Z,1025.86
2019-03-22T03:59:28.549Z,1025.84
2019-03-22T04:01:28.700Z,1025.84
2019-03-22T04:02:28.645Z,1025.84
2019-03-22T04:03:28.829Z,1025.82
2019-03-22T04:04:29.121Z,1025.84
2019-03-22T04:05:28.761Z,1025.86
2019-03-22T04:06:28.642Z,1025.81
2019-03-22T04:07:28.888Z,1025.79
2019-03-22T04:08:28.671Z,1025.77
2019-03-22T04:09:28.675Z,1025.75
2019-03-22T04:10:28.687Z,1025.75
2019-03-22T04:11:28.715Z,1025.72
2019-03-22T04:12:28.878Z,1025.71
2019-03-22T04:13:28.727Z,1025.69
2019-03-22T04:14:28.733Z,1025.71
2019-03-22T04:15:29.610Z,1025.75
2019-03-22T04:16:28.765Z,1025.75
2019-03-22T04:17:28.784Z,1025.74
2019-03-22T04:18:28.788Z,1025.79
2019-03-22T04:19:28.804Z,1025.82
2019-03-22T04:20:28.818Z,1025.79
2019-03-22T04:21:28.824Z,1025.79
2019-03-22T04:22:29.169Z,1025.79
2019-03-22T04:23:29.061Z,1025.76
2019-03-22T04:24:28.864Z,1025.79
2019-03-22T04:25:28.872Z,1025.80
2019-03-22T04:26:28.892Z,1025.78
2019-03-22T04:27:28.908Z,1025.76
2019-03-22T04:28:29.675Z,1025.74
2019-03-22T04:29:28.916Z,1025.75
2019-03-22T04:31:28.943Z,1025.72
2019-03-22T04:32:29.253Z,1025.69
2019-03-22T04:33:28.971Z,1025.68
2019-03-22T04:34:29.013Z,1025.66
2019-03-22T04:35:28.992Z,1025.70
2019-03-22T04:36:29.008Z,1025.68
2019-03-22T04:37:29.025Z,1025.66
2019-03-22T04:38:29.045Z,1025.67
2019-03-22T04:39:29.092Z,1025.66
2019-03-22T04:40:29.123Z,1025.63
2019-03-22T04:41:29.077Z,1025.64
2019-03-22T04:42:29.084Z,1025.65
2019-03-22T04:43:29.120Z,1025.68
2019-03-22T04:44:29.261Z,1025.69
2019-03-22T04:45:29.677Z,1025.66
2019-03-22T04:46:29.190Z,1025.68
2019-03-22T04:48:29.168Z,1025.63
2019-03-22T04:49:29.182Z,1025.65
2019-03-22T04:50:29.181Z,1025.65
2019-03-22T04:51:29.194Z,1025.67
2019-03-22T04:52:29.201Z,1025.63
2019-03-22T04:53:29.217Z,1025.59
2019-03-22T04:54:29.231Z,1025.63
2019-03-22T04:55:29.284Z,1025.65
2019-03-22T04:56:29.259Z,1025.61
2019-03-22T04:57:29.269Z,1025.56
2019-03-22T04:58:29.283Z,1025.56
2019-03-22T04:59:29.289Z,1025.58
2019-03-22T05:00:29.301Z,1025.57
2019-03-22T05:01:30.148Z,1025.62
2019-03-22T05:02:29.337Z,1025.61
2019-03-22T05:03:29.337Z,1025.63
2019-03-22T05:04:29.349Z,1025.65
2019-03-22T05:05:29.363Z,1025.62
2019-03-22T05:06:29.453Z,1025.67
2019-03-22T05:07:29.745Z,1025.68
2019-03-22T05:08:29.407Z,1025.67
2019-03-22T05:09:29.451Z,1025.69
2019-03-22T05:10:29.424Z,1025.68
2019-03-22T05:11:29.436Z,1025.68
2019-03-22T05:12:29.501Z,1025.69
2019-03-22T05:13:30.031Z,1025.69
2019-03-22T05:14:29.540Z,1025.71
2019-03-22T05:15:29.487Z,1025.70
2019-03-22T05:16:29.504Z,1025.72
2019-03-22T05:17:29.510Z,1025.72
2019-03-22T05:18:30.603Z,1025.70
2019-03-22T05:19:29.537Z,1025.72
2019-03-22T05:20:29.676Z,1025.73
2019-03-22T05:21:29.559Z,1025.68
2019-03-22T05:22:29.573Z,1025.75
2019-03-22T05:23:29.590Z,1025.72
2019-03-22T05:24:29.597Z,1025.74
2019-03-22T05:25:29.607Z,1025.76
2019-03-22T05:26:29.625Z,1025.77
2019-03-22T05:27:29.638Z,1025.73
2019-03-22T05:28:29.651Z,1025.80
2019-03-22T05:30:29.671Z,1025.88
2019-03-22T05:31:29.686Z,1025.89
2019-03-22T05:32:29.708Z,1025.93
2019-03-22T05:33:29.717Z,1025.95
2019-03-22T05:34:29.752Z,1025.91
2019-03-22T05:35:29.733Z,1025.91
2019-03-22T05:37:29.769Z,1025.88
2019-03-22T05:38:29.805Z,1025.95
2019-03-22T05:39:29.815Z,1025.93
2019-03-22T05:40:29.793Z,1025.96
2019-03-22T05:41:31.172Z,1025.94
2019-03-22T05:42:29.828Z,1025.99
2019-03-22T05:43:31.341Z,1025.98
2019-03-22T05:44:30.236Z,1026.01
2019-03-22T05:45:32.243Z,1026.03
2019-03-22T05:46:29.870Z,1026.03
2019-03-22T05:47:29.892Z,1025.98
2019-03-22T05:48:29.898Z,1026.05
2019-03-22T05:49:29.910Z,1026.00
2019-03-22T05:50:29.923Z,1026.02
2019-03-22T05:51:29.950Z,1025.99
2019-03-22T05:52:29.944Z,1026.01
2019-03-22T05:53:30.020Z,1026.01
2019-03-22T05:54:29.971Z,1026.03
2019-03-22T05:55:29.994Z,1026.01
2019-03-22T05:56:29.992Z,1026.00
2019-03-22T05:57:30.020Z,1025.98
2019-03-22T05:58:30.043Z,1026.01
2019-03-22T05:59:41.601Z,1026.03
2019-03-22T06:00:30.057Z,1026.04
2019-03-22T06:01:30.445Z,1026.04
2019-03-22T06:02:30.061Z,1026.04
2019-03-22T06:03:30.077Z,1026.08
2019-03-22T06:04:30.099Z,1026.13
2019-03-22T06:05:30.095Z,1026.12
2019-03-22T06:06:30.108Z,1026.16
2019-03-22T06:07:30.128Z,1026.16
2019-03-22T06:08:30.189Z,1026.20
2019-03-22T06:09:30.200Z,1026.21
2019-03-22T06:10:30.163Z,1026.23
2019-03-22T06:11:30.855Z,1026.26
2019-03-22T06:12:30.688Z,1026.28
2019-03-22T06:13:30.247Z,1026.29
2019-03-22T06:14:30.314Z,1026.28
2019-03-22T06:15:30.568Z,1026.28
2019-03-22T06:16:30.233Z,1026.30
2019-03-22T06:17:30.298Z,1026.33
2019-03-22T06:18:30.517Z,1026.33
2019-03-22T06:19:30.302Z,1026.31
2019-03-22T06:20:30.278Z,1026.32
2019-03-22T06:21:31.117Z,1026.32
2019-03-22T06:22:30.393Z,1026.32
2019-03-22T06:23:30.936Z,1026.31
2019-03-22T06:24:30.513Z,1026.34
2019-03-22T06:25:30.433Z,1026.31
2019-03-22T06:26:33.561Z,1026.28
2019-03-22T06:27:32.744Z,1026.31
2019-03-22T06:28:30.379Z,1026.31
2019-03-22T06:29:30.842Z,1026.32
2019-03-22T06:30:30.404Z,1026.36
2019-03-22T06:31:30.414Z,1026.40
2019-03-22T06:32:30.422Z,1026.42
2019-03-22T06:33:31.857Z,1026.41
2019-03-22T06:34:30.478Z,1026.46
2019-03-22T06:35:30.464Z,1026.44
2019-03-22T06:36:30.538Z,1026.47
2019-03-22T06:37:30.497Z,1026.50
2019-03-22T06:38:30.508Z,1026.51
2019-03-22T06:39:30.531Z,1026.51
2019-03-22T06:40:30.540Z,1026.54
2019-03-22T06:41:30.560Z,1026.56
2019-03-22T06:42:30.660Z,1026.59
2019-03-22T06:43:30.679Z,1026.63
2019-03-22T06:44:30.577Z,1026.67
2019-03-22T06:45:31.170Z,1026.68
2019-03-22T06:46:30.642Z,1026.70
2019-03-22T06:47:30.607Z,1026.67
2019-03-22T06:48:30.736Z,1026.71
2019-03-22T06:49:30.638Z,1026.69
2019-03-22T06:50:31.608Z,1026.64
2019-03-22T06:52:31.157Z,1026.70
2019-03-22T06:53:30.697Z,1026.68
2019-03-22T06:54:32.195Z,1026.67
2019-03-22T06:55:30.853Z,1026.72
2019-03-22T06:56:31.317Z,1026.74
2019-03-22T06:57:31.825Z,1026.70
2019-03-22T06:58:31.055Z,1026.73
2019-03-22T06:59:31.451Z,1026.72
2019-03-22T07:00:30.781Z,1026.73
2019-03-22T07:02:31.592Z,1026.73
2019-03-22T07:03:30.851Z,1026.72
2019-03-22T07:04:31.432Z,1026.69
2019-03-22T07:05:30.849Z,1026.67
2019-03-22T07:06:31.041Z,1026.70
2019-03-22T07:07:31.187Z,1026.72
2019-03-22T07:08:30.941Z,1026.70
2019-03-22T07:09:31.007Z,1026.71
2019-03-22T07:10:31.767Z,1026.71
2019-03-22T07:11:31.036Z,1026.72
2019-03-22T07:12:31.681Z,1026.73
2019-03-22T07:13:31.875Z,1026.76
2019-03-22T07:14:31.592Z,1026.72
2019-03-22T07:15:31.297Z,1026.69
2019-03-22T07:16:30.971Z,1026.72
2019-03-22T07:17:30.978Z,1026.73
2019-03-22T07:18:30.990Z,1026.69
2019-03-22T07:19:31.069Z,1026.69
2019-03-22T07:20:31.154Z,1026.69
2019-03-22T07:21:31.106Z,1026.65
2019-03-22T07:22:31.045Z,1026.68
2019-03-22T07:23:31.049Z,1026.68
2019-03-22T07:24:31.065Z,1026.63
2019-03-22T07:25:31.075Z,1026.65
2019-03-22T07:26:31.096Z,1026.61
2019-03-22T07:27:31.107Z,1026.56
2019-03-22T07:28:31.115Z,1026.60
2019-03-22T07:29:31.136Z,1026.55
2019-03-22T07:30:31.141Z,1026.54
2019-03-22T07:31:31.162Z,1026.49
2019-03-22T07:32:31.169Z,1026.47
2019-03-22T07:33:31.180Z,1026.48
2019-03-22T07:34:31.188Z,1026.46
2019-03-22T07:35:31.214Z,1026.42
2019-03-22T07:36:31.217Z,1026.40
2019-03-22T07:37:31.292Z,1026.41
2019-03-22T07:38:31.246Z,1026.42
2019-03-22T07:39:31.263Z,1026.40
2019-03-22T07:40:31.265Z,1026.41
2019-03-22T07:41:31.284Z,1026.40
2019-03-22T07:42:31.304Z,1026.41
2019-03-22T07:43:31.309Z,1026.43
2019-03-22T07:44:31.325Z,1026.41
2019-03-22T07:45:31.337Z,1026.42
2019-03-22T07:46:31.353Z,1026.41
2019-03-22T07:47:31.353Z,1026.41
2019-03-22T07:48:31.379Z,1026.38
2019-03-22T07:49:31.382Z,1026.37
2019-03-22T07:50:31.400Z,1026.34
2019-03-22T07:51:31.416Z,1026.33
2019-03-22T07:52:31.434Z,1026.35
2019-03-22T07:53:31.430Z,1026.32
2019-03-22T07:54:31.450Z,1026.35
2019-03-22T07:55:31.456Z,1026.31
2019-03-22T07:56:31.468Z,1026.31
2019-03-22T07:57:31.501Z,1026.34
2019-03-22T07:58:31.497Z,1026.30
2019-03-22T07:59:31.510Z,1026.31
2019-03-22T08:00:31.525Z,1026.37
2019-03-22T08:01:31.541Z,1026.35
2019-03-22T08:02:31.549Z,1026.34
2019-03-22T08:03:31.566Z,1026.32
2019-03-22T08:04:31.596Z,1026.29
2019-03-22T08:05:31.652Z,1026.30
2019-03-22T08:06:31.611Z,1026.28
2019-03-22T08:07:31.611Z,1026.28
2019-03-22T08:08:31.625Z,1026.27
2019-03-22T08:09:31.641Z,1026.32
2019-03-22T08:10:31.664Z,1026.32
2019-03-22T08:11:31.670Z,1026.33
2019-03-22T08:12:31.675Z,1026.32
2019-03-22T08:14:31.698Z,1026.28
2019-03-22T08:15:31.726Z,1026.29
2019-03-22T08:16:31.729Z,1026.24
2019-03-22T08:17:31.760Z,1026.23
2019-03-22T08:18:31.774Z,1026.20
2019-03-22T08:19:31.840Z,1026.18
2019-03-22T08:20:31.851Z,1026.18
2019-03-22T08:21:31.807Z,1026.17
2019-03-22T08:22:31.895Z,1026.14
2019-03-22T08:23:31.831Z,1026.16
2019-03-22T08:24:31.836Z,1026.14
2019-03-22T08:25:32.618Z,1026.08
2019-03-22T08:26:31.875Z,1026.06
2019-03-22T08:27:31.882Z,1026.06
2019-03-22T08:28:31.913Z,1026.08
2019-03-22T08:29:31.897Z,1026.01
2019-03-22T08:30:42.521Z,1026.04
2019-03-22T08:31:31.938Z,1026.02
2019-03-22T08:32:31.941Z,1025.97
2019-03-22T08:33:31.971Z,1026.02
2019-03-22T08:34:31.977Z,1025.96
2019-03-22T08:35:32.007Z,1025.95
2019-03-22T08:36:32.020Z,1026.00
2019-03-22T08:37:32.015Z,1025.98
2019-03-22T08:38:32.028Z,1025.95
2019-03-22T08:39:32.043Z,1025.92
2019-03-22T08:40:32.100Z,1025.96
2019-03-22T08:41:32.102Z,1025.96
2019-03-22T08:42:32.075Z,1025.91
2019-03-22T08:43:32.129Z,1025.92
2019-03-22T08:44:32.101Z,1025.86
2019-03-22T08:45:32.128Z,1025.88
2019-03-22T08:46:32.136Z,1025.88
2019-03-22T08:47:34.164Z,1025.83
2019-03-22T08:48:36.203Z,1025.82
2019-03-22T08:49:32.346Z,1025.78
2019-03-22T08:50:32.221Z,1025.80
2019-03-22T08:51:32.204Z,1025.80
2019-03-22T08:52:32.207Z,1025.79
2019-03-22T08:53:32.250Z,1025.81
2019-03-22T08:54:32.242Z,1025.79
2019-03-22T08:55:32.271Z,1025.79
2019-03-22T08:56:32.274Z,1025.78
2019-03-22T08:57:32.295Z,1025.78
2019-03-22T08:58:32.331Z,1025.78
2019-03-22T08:59:32.297Z,1025.82
2019-03-22T09:00:39.116Z,1025.79
2019-03-22T09:01:32.328Z,1025.76
2019-03-22T09:02:32.347Z,1025.77
2019-03-22T09:03:32.356Z,1025.79
2019-03-22T09:04:32.389Z,1025.76
2019-03-22T09:05:32.403Z,1025.72
2019-03-22T09:06:32.396Z,1025.74
2019-03-22T09:07:32.444Z,1025.73
2019-03-22T09:08:32.426Z,1025.73
2019-03-22T09:09:41.413Z,1025.76
2019-03-22T09:10:32.483Z,1025.75
2019-03-22T09:11:32.483Z,1025.71
2019-03-22T09:12:32.500Z,1025.72
2019-03-22T09:13:32.500Z,1025.72
2019-03-22T09:14:32.549Z,1025.73
2019-03-22T09:15:41.110Z,1025.72
2019-03-22T09:16:32.594Z,1025.72
2019-03-22T09:17:32.556Z,1025.69
2019-03-22T09:18:32.568Z,1025.73
2019-03-22T09:19:32.631Z,1025.73
2019-03-22T09:20:32.600Z,1025.72
2019-03-22T09:21:32.657Z,1025.71
2019-03-22T09:22:32.651Z,1025.69
2019-03-22T09:23:32.663Z,1025.69
2019-03-22T09:24:39.164Z,1025.69
2019-03-22T09:25:32.664Z,1025.72
2019-03-22T09:26:32.693Z,1025.70
2019-03-22T09:27:32.696Z,1025.71
2019-03-22T09:28:32.745Z,1025.69
2019-03-22T09:29:32.749Z,1025.68
2019-03-22T09:30:32.767Z,1025.70
2019-03-22T09:32:33.066Z,1025.64
2019-03-22T09:35:34.778Z,1025.69
2019-03-22T09:36:32.809Z,1025.66
2019-03-22T09:37:33.039Z,1025.65
2019-03-22T09:38:32.849Z,1025.67
2019-03-22T09:39:33.529Z,1025.66
2019-03-22T09:40:32.869Z,1025.67
2019-03-22T09:41:32.878Z,1025.62
2019-03-22T09:42:32.910Z,1025.65
2019-03-22T09:43:32.907Z,1025.63
2019-03-22T09:44:42.808Z,1025.62
2019-03-22T09:45:32.955Z,1025.67
2019-03-22T09:46:32.957Z,1025.68
2019-03-22T09:47:33.043Z,1025.64
2019-03-22T09:48:32.983Z,1025.64
2019-03-22T09:49:33.005Z,1025.66
2019-03-22T09:50:33.046Z,1025.62
2019-03-22T09:51:33.071Z,1025.63
2019-03-22T09:52:33.801Z,1025.61
2019-03-22T09:53:33.058Z,1025.60
2019-03-22T09:54:33.169Z,1025.59
2019-03-22T09:55:33.089Z,1025.57
2019-03-22T09:56:46.088Z,1025.57
2019-03-22T09:57:33.151Z,1025.59
2019-03-22T09:58:33.131Z,1025.61
2019-03-22T09:59:33.173Z,1025.60
2019-03-22T10:00:33.177Z,1025.59
2019-03-22T10:01:33.164Z,1025.62
2019-03-22T10:02:33.216Z,1025.62
2019-03-22T10:03:33.195Z,1025.61
2019-03-22T10:04:33.246Z,1025.64
2019-03-22T10:05:33.262Z,1025.59
2019-03-22T10:06:33.234Z,1025.57
2019-03-22T10:07:33.322Z,1025.62
2019-03-22T10:08:33.272Z,1025.55
2019-03-22T10:09:33.285Z,1025.49
2019-03-22T10:10:33.301Z,1025.48
2019-03-22T10:11:33.364Z,1025.45
2019-03-22T10:12:33.332Z,1025.46
2019-03-22T10:13:33.353Z,1025.43
2019-03-22T10:14:33.403Z,1025.41
2019-03-22T10:15:33.384Z,1025.45
2019-03-22T10:16:33.412Z,1025.42
2019-03-22T10:18:35.504Z,1025.41
2019-03-22T10:19:33.473Z,1025.42
2019-03-22T10:20:33.438Z,1025.37
2019-03-22T10:21:33.462Z,1025.38
2019-03-22T10:22:33.479Z,1025.41
2019-03-22T10:23:33.512Z,1025.38
2019-03-22T10:24:33.500Z,1025.38
2019-03-22T10:25:33.517Z,1025.37
2019-03-22T10:26:33.550Z,1025.36
2019-03-22T10:27:33.574Z,1025.31
2019-03-22T10:28:33.620Z,1025.31
2019-03-22T10:29:33.568Z,1025.28
2019-03-22T10:30:33.592Z,1025.28
2019-03-22T10:31:37.549Z,1025.28
2019-03-22T10:32:33.623Z,1025.26
2019-03-22T10:33:33.662Z,1025.28
2019-03-22T10:34:33.660Z,1025.26
2019-03-22T10:35:33.654Z,1025.30
2019-03-22T10:36:33.699Z,1025.32
2019-03-22T10:37:33.702Z,1025.29
2019-03-22T10:38:33.744Z,1025.27
2019-03-22T10:39:33.762Z,1025.26
2019-03-22T10:40:33.761Z,1025.27
2019-03-22T10:41:33.761Z,1025.26
2019-03-22T10:42:33.793Z,1025.23
2019-03-22T10:43:33.808Z,1025.23
2019-03-22T10:44:33.804Z,1025.24
2019-03-22T10:45:33.839Z,1025.22
2019-03-22T10:46:33.855Z,1025.21
2019-03-22T10:47:33.872Z,1025.21
2019-03-22T10:48:33.872Z,1025.16
2019-03-22T10:49:33.895Z,1025.17
2019-03-22T10:50:33.890Z,1025.15
2019-03-22T10:51:33.901Z,1025.10
2019-03-22T10:52:33.962Z,1025.13
2019-03-22T10:53:33.925Z,1025.10
2019-03-22T10:54:33.975Z,1025.08
2019-03-22T10:55:35.472Z,1025.06
2019-03-22T10:56:33.960Z,1025.01
2019-03-22T10:57:33.986Z,1024.98
2019-03-22T10:58:34.005Z,1024.99
2019-03-22T10:59:34.015Z,1024.96
2019-03-22T11:00:34.045Z,1024.87
2019-03-22T11:01:46.445Z,1024.84
2019-03-22T11:02:34.051Z,1024.83
2019-03-22T11:03:34.103Z,1024.81
2019-03-22T11:04:34.083Z,1024.80
2019-03-22T11:05:34.096Z,1024.80
2019-03-22T11:06:34.113Z,1024.80
2019-03-22T11:07:34.143Z,1024.79
2019-03-22T11:08:34.148Z,1024.81
2019-03-22T11:09:34.165Z,1024.79
2019-03-22T11:10:34.166Z,1024.80
2019-03-22T11:11:34.200Z,1024.81
2019-03-22T11:12:34.204Z,1024.80
2019-03-22T11:13:34.210Z,1024.79
2019-03-22T11:14:34.234Z,1024.81
2019-03-22T11:15:34.263Z,1024.79
2019-03-22T11:16:34.252Z,1024.74
2019-03-22T11:17:34.271Z,1024.77
2019-03-22T11:18:37.633Z,1024.75
2019-03-22T11:19:34.303Z,1024.75
2019-03-22T11:20:34.320Z,1024.74
2019-03-22T11:21:34.359Z,1024.75
2019-03-22T11:22:34.347Z,1024.72
2019-03-22T11:23:34.364Z,1024.68
2019-03-22T11:24:34.380Z,1024.66
2019-03-22T11:25:34.404Z,1024.66
2019-03-22T11:26:34.407Z,1024.66
2019-03-22T11:27:34.445Z,1024.65
2019-03-22T11:28:34.447Z,1024.64
2019-03-22T11:29:34.456Z,1024.60
2019-03-22T11:30:34.462Z,1024.56
2019-03-22T11:31:39.717Z,1024.54
2019-03-22T11:32:34.492Z,1024.58
2019-03-22T11:33:34.508Z,1024.53
2019-03-22T11:34:34.531Z,1024.49
2019-03-22T11:35:34.549Z,1024.49
2019-03-22T11:36:34.556Z,1024.44
2019-03-22T11:37:34.581Z,1024.39
2019-03-22T11:38:34.582Z,1024.39
2019-03-22T11:39:34.603Z,1024.38
2019-03-22T11:40:34.671Z,1024.35
2019-03-22T11:41:34.628Z,1024.33
2019-03-22T11:42:34.662Z,1024.36
2019-03-22T11:43:34.659Z,1024.31
2019-03-22T11:44:34.670Z,1024.34
2019-03-22T11:45:34.702Z,1024.31
2019-03-22T11:46:34.723Z,1024.27
2019-03-22T11:47:34.719Z,1024.26
2019-03-22T11:48:34.740Z,1024.23
2019-03-22T11:49:34.753Z,1024.24
2019-03-22T11:50:34.793Z,1024.22
2019-03-22T11:51:34.776Z,1024.20
2019-03-22T11:52:34.805Z,1024.17
2019-03-22T11:53:34.807Z,1024.21
2019-03-22T11:54:34.821Z,1024.21
2019-03-22T11:56:35.075Z,1024.17
2019-03-22T11:57:34.866Z,1024.13
2019-03-22T11:58:34.895Z,1024.16
2019-03-22T11:59:35.203Z,1024.10
2019-03-22T12:00:34.925Z,1024.08
2019-03-22T12:01:34.926Z,1024.06
2019-03-22T12:02:34.942Z,1024.06
2019-03-22T12:03:34.985Z,1024.02
2019-03-22T12:04:34.970Z,1023.96
2019-03-22T12:05:40.278Z,1023.95
2019-03-22T12:06:35.011Z,1023.95
2019-03-22T12:07:35.029Z,1023.98
2019-03-22T12:08:35.030Z,1023.96
2019-03-22T12:09:35.072Z,1023.97
2019-03-22T12:10:35.128Z,1023.92
2019-03-22T12:11:35.134Z,1023.90
2019-03-22T12:12:35.136Z,1023.87
2019-03-22T12:13:35.110Z,1023.85
2019-03-22T12:14:35.128Z,1023.85
2019-03-22T12:15:35.136Z,1023.81
2019-03-22T12:16:35.150Z,1023.80
2019-03-22T12:17:35.179Z,1023.76
2019-03-22T12:18:35.198Z,1023.77
2019-03-22T12:19:35.202Z,1023.74
2019-03-22T12:20:35.210Z,1023.75
2019-03-22T12:21:35.229Z,1023.72
2019-03-22T12:22:35.242Z,1023.70
2019-03-22T12:23:35.264Z,1023.70
2019-03-22T12:24:35.273Z,1023.69
2019-03-22T12:25:35.306Z,1023.64
2019-03-22T12:26:35.305Z,1023.63
2019-03-22T12:27:36.823Z,1023.61
2019-03-22T12:28:35.335Z,1023.59
2019-03-22T12:29:35.356Z,1023.54
2019-03-22T12:30:35.409Z,1023.55
2019-03-22T12:31:35.418Z,1023.52
2019-03-22T12:32:35.429Z,1023.52
2019-03-22T12:33:35.412Z,1023.48
2019-03-22T12:34:35.437Z,1023.50
2019-03-22T12:35:35.443Z,1023.50
2019-03-22T12:36:35.464Z,1023.51
2019-03-22T12:37:35.474Z,1023.49
2019-03-22T12:38:35.491Z,1023.47
2019-03-22T12:39:35.501Z,1023.48
2019-03-22T12:40:35.519Z,1023.45
2019-03-22T12:41:35.534Z,1023.43
2019-03-22T12:42:35.551Z,1023.47
2019-03-22T12:43:35.568Z,1023.46
2019-03-22T12:44:35.573Z,1023.39
2019-03-22T12:45:35.614Z,1023.38
2019-03-22T12:46:35.613Z,1023.39
2019-03-22T12:47:35.646Z,1023.36
2019-03-22T12:48:35.662Z,1023.32
2019-03-22T12:49:35.656Z,1023.29
2019-03-22T12:50:35.686Z,1023.30
2019-03-22T12:51:35.692Z,1023.30
2019-03-22T12:52:35.706Z,1023.28
2019-03-22T12:53:35.727Z,1023.25
2019-03-22T12:54:35.739Z,1023.26
2019-03-22T12:55:35.750Z,1023.26
2019-03-22T12:56:35.764Z,1023.25
2019-03-22T12:57:35.778Z,1023.25
2019-03-22T12:58:35.792Z,1023.22
2019-03-22T12:59:35.818Z,1023.21
2019-03-22T13:00:36.120Z,1023.20
2019-03-22T13:01:35.840Z,1023.20
2019-03-22T13:02:42.213Z,1023.19
2019-03-22T13:03:35.882Z,1023.15
2019-03-22T13:04:35.922Z,1023.16
2019-03-22T13:05:35.906Z,1023.08
2019-03-22T13:06:36.228Z,1023.08
2019-03-22T13:07:35.940Z,1023.03
2019-03-22T13:08:35.962Z,1023.03
2019-03-22T13:09:35.967Z,1023.05
2019-03-22T13:10:35.984Z,1023.01
2019-03-22T13:11:35.992Z,1023.06
2019-03-22T13:12:36.008Z,1023.00
2019-03-22T13:13:36.030Z,1023.02
2019-03-22T13:14:36.338Z,1023.04
2019-03-22T13:15:36.061Z,1023.00
2019-03-22T13:16:36.069Z,1022.95
2019-03-22T13:17:36.085Z,1022.92
2019-03-22T13:18:36.128Z,1022.91
2019-03-22T13:19:36.156Z,1022.90
2019-03-22T13:20:36.131Z,1022.88
2019-03-22T13:21:36.152Z,1022.88
2019-03-22T13:22:37.424Z,1022.89
2019-03-22T13:23:36.180Z,1022.86
2019-03-22T13:24:36.196Z,1022.87
2019-03-22T13:25:36.220Z,1022.85
2019-03-22T13:26:36.224Z,1022.87
2019-03-22T13:27:36.253Z,1022.81
2019-03-22T13:28:36.254Z,1022.77
2019-03-22T13:29:36.272Z,1022.77
2019-03-22T13:30:36.290Z,1022.76
2019-03-22T13:31:36.312Z,1022.76
2019-03-22T13:32:36.318Z,1022.74
2019-03-22T13:33:36.364Z,1022.77
2019-03-22T13:34:36.352Z,1022.70
2019-03-22T13:35:36.375Z,1022.68
2019-03-22T13:36:36.376Z,1022.69
2019-03-22T13:37:36.405Z,1022.63
2019-03-22T13:38:36.403Z,1022.65
2019-03-22T13:39:36.432Z,1022.64
2019-03-22T13:40:36.473Z,1022.64
2019-03-22T13:41:36.458Z,1022.64
2019-03-22T13:42:36.479Z,1022.58
2019-03-22T13:43:36.484Z,1022.55
2019-03-22T13:44:36.500Z,1022.57
2019-03-22T13:45:36.514Z,1022.57
2019-03-22T13:46:40.432Z,1022.52
2019-03-22T13:47:36.608Z,1022.54
2019-03-22T13:48:36.559Z,1022.55
2019-03-22T13:49:36.598Z,1022.54
2019-03-22T13:50:36.609Z,1022.52
2019-03-22T13:51:36.616Z,1022.57
2019-03-22T13:52:36.645Z,1022.50
2019-03-22T13:53:36.658Z,1022.54
2019-03-22T13:54:36.666Z,1022.49
2019-03-22T13:55:36.672Z,1022.51
2019-03-22T13:56:36.703Z,1022.57
2019-03-22T13:57:36.710Z,1022.65
2019-03-22T13:58:36.751Z,1022.70
2019-03-22T13:59:36.755Z,1022.67
2019-03-22T14:00:36.762Z,1022.70
2019-03-22T14:01:36.793Z,1022.65
2019-03-22T14:02:36.789Z,1022.53
2019-03-22T14:03:36.841Z,1022.56
2019-03-22T14:04:36.855Z,1022.54
2019-03-22T14:05:36.852Z,1022.65
2019-03-22T14:06:36.865Z,1022.64
2019-03-22T14:07:37.004Z,1022.78
2019-03-22T14:08:36.917Z,1022.83
2019-03-22T14:09:36.961Z,1022.80
2019-03-22T14:10:37.004Z,1022.73
2019-03-22T14:11:36.966Z,1022.79
2019-03-22T14:12:37.459Z,1022.84
2019-03-22T14:13:36.998Z,1022.85
2019-03-22T14:14:37.041Z,1022.92
2019-03-22T14:15:37.048Z,1022.97
2019-03-22T14:16:37.096Z,1023.03
2019-03-22T14:17:37.098Z,1023.01
2019-03-22T14:18:37.112Z,1023.06
2019-03-22T14:19:37.135Z,1023.10
2019-03-22T14:20:37.151Z,1023.15
2019-03-22T14:21:37.237Z,1023.13
2019-03-22T14:22:37.193Z,1023.18
2019-03-22T14:23:37.219Z,1023.18
2019-03-22T14:24:37.247Z,1023.20
2019-03-22T14:25:37.287Z,1023.18
2019-03-22T14:26:37.294Z,1023.15
2019-03-22T14:27:37.327Z,1023.20
2019-03-22T14:28:37.375Z,1023.17
2019-03-22T14:29:37.372Z,1023.19
2019-03-22T14:30:37.416Z,1023.19
2019-03-22T14:31:37.424Z,1023.21
2019-03-22T14:32:37.453Z,1023.15
2019-03-22T14:33:37.493Z,1023.19
2019-03-22T14:34:37.504Z,1023.19
2019-03-22T14:35:37.547Z,1023.17
2019-03-22T14:36:37.542Z,1022.89
2019-03-22T14:37:37.569Z,1022.53
2019-03-22T14:38:37.590Z,1022.29
2019-03-22T14:39:37.627Z,1022.21
2019-03-22T14:40:37.646Z,1022.17
2019-03-22T14:41:37.701Z,1022.17
2019-03-22T14:42:37.714Z,1022.13
2019-03-22T14:43:37.733Z,1022.11
2019-03-22T14:44:37.730Z,1022.13
2019-03-22T14:45:37.744Z,1022.08
2019-03-22T14:46:37.772Z,1022.06
2019-03-22T14:47:37.786Z,1022.03
2019-03-22T14:48:37.815Z,1021.97
2019-03-22T14:49:37.829Z,1021.90
2019-03-22T14:50:37.860Z,1021.91
2019-03-22T14:51:37.878Z,1021.86
2019-03-22T14:52:37.957Z,1021.92
2019-03-22T14:53:37.920Z,1021.84
2019-03-22T14:54:37.959Z,1021.80
2019-03-22T14:55:37.987Z,1021.83
2019-03-22T14:56:37.976Z,1021.85
2019-03-22T14:57:47.779Z,1021.82
2019-03-22T14:58:38.011Z,1021.77
2019-03-22T14:59:38.039Z,1021.80
2019-03-22T15:00:38.050Z,1021.78
2019-03-22T15:01:38.078Z,1021.73
2019-03-22T15:02:38.102Z,1021.66
2019-03-22T15:03:38.103Z,1021.68
2019-03-22T15:04:38.117Z,1021.64
2019-03-22T15:05:38.184Z,1021.63
2019-03-22T15:06:38.166Z,1021.65
2019-03-22T15:07:38.178Z,1021.63
2019-03-22T15:08:38.192Z,1021.62
2019-03-22T15:09:38.208Z,1021.58
2019-03-22T15:10:38.223Z,1021.59
2019-03-22T15:11:38.237Z,1021.60
2019-03-22T15:12:38.255Z,1021.56
2019-03-22T15:13:38.330Z,1021.54
2019-03-22T15:14:38.295Z,1021.55
2019-03-22T15:15:38.326Z,1021.56
2019-03-22T15:16:38.320Z,1021.56
2019-03-22T15:17:38.345Z,1021.52
2019-03-22T15:18:38.358Z,1021.51
2019-03-22T15:19:38.372Z,1021.47
2019-03-22T15:20:38.392Z,1021.46
2019-03-22T15:21:38.409Z,1021.45
2019-03-22T15:22:38.423Z,1021.45
2019-03-22T15:23:38.442Z,1021.42
2019-03-22T15:24:38.479Z,1021.42
2019-03-22T15:25:38.485Z,1021.39
2019-03-22T15:26:38.501Z,1021.37
2019-03-22T15:27:38.515Z,1021.43
2019-03-22T15:28:38.564Z,1021.37
2019-03-22T15:29:38.563Z,1021.39
2019-03-22T15:30:38.599Z,1021.35